sensor_id;sensor_type;location;lat;lon;timestamp;temperature;humidity
23137;DHT22;11737;50.558;7.258;2022-07-12T00:02:11;15.20;99.90
23137;DHT22;11737;50.558;7.258;2022-07-12T00:04:38;15.10;99.90
23137;DHT22;11737;50.558;7.258;2022-07-12T00:07:06;15.10;99.90
23137;DHT22;11737;50.558;7.258;2022-07-12T00:09:34;15.10;99.90
23137;DHT22;11737;50.558;7.258;2022-07-12T00:12:01;15.10;99.90
23137;DHT22;11737;50.558;7.258;2022-07-12T00:14:29;15.10;99.90
23137;DHT22;11737;50.558;7.258;2022-07-12T00:16:57;15.10;99.90
23137;DHT22;11737;50.558;7.258;2022-07-12T00:19:24;15.10;99.90
23137;DHT22;11737;50.558;7.258;2022-07-12T00:21:52;15.00;99.90
23137;DHT22;11737;50.558;7.258;2022-07-12T00:24:19;15.00;99.90
23137;DHT22;11737;50.558;7.258;2022-07-12T00:26:48;14.90;99.90
23137;DHT22;11737;50.558;7.258;2022-07-12T00:29:16;14.90;99.90
23137;DHT22;11737;50.558;7.258;2022-07-12T00:31:44;14.90;99.90
23137;DHT22;11737;50.558;7.258;2022-07-12T00:34:12;14.90;99.90
23137;DHT22;11737;50.558;7.258;2022-07-12T00:36:40;14.90;99.90
23137;DHT22;11737;50.558;7.258;2022-07-12T00:39:07;14.90;99.90
23137;DHT22;11737;50.558;7.258;2022-07-12T00:41:35;14.90;99.90
23137;DHT22;11737;50.558;7.258;2022-07-12T00:44:02;14.80;99.90
23137;DHT22;11737;50.558;7.258;2022-07-12T00:46:31;14.80;99.90
23137;DHT22;11737;50.558;7.258;2022-07-12T00:48:59;14.60;99.90
23137;DHT22;11737;50.558;7.258;2022-07-12T00:51:26;14.60;99.90
23137;DHT22;11737;50.558;7.258;2022-07-12T00:53:56;14.60;99.90
23137;DHT22;11737;50.558;7.258;2022-07-12T00:56:25;14.70;99.90
23137;DHT22;11737;50.558;7.258;2022-07-12T00:58:53;14.70;99.90
23137;DHT22;11737;50.558;7.258;2022-07-12T01:01:21;14.60;99.90
23137;DHT22;11737;50.558;7.258;2022-07-12T01:03:50;14.60;99.90
23137;DHT22;11737;50.558;7.258;2022-07-12T01:06:20;14.60;99.90
23137;DHT22;11737;50.558;7.258;2022-07-12T01:08:49;14.60;99.90
23137;DHT22;11737;50.558;7.258;2022-07-12T01:11:16;14.50;99.90
23137;DHT22;11737;50.558;7.258;2022-07-12T01:13:44;14.50;99.90
23137;DHT22;11737;50.558;7.258;2022-07-12T01:16:13;14.40;99.90
23137;DHT22;11737;50.558;7.258;2022-07-12T01:18:41;14.30;99.90
23137;DHT22;11737;50.558;7.258;2022-07-12T01:21:18;14.30;99.90
23137;DHT22;11737;50.558;7.258;2022-07-12T01:23:47;14.30;99.90
23137;DHT22;11737;50.558;7.258;2022-07-12T01:26:14;14.20;99.90
23137;DHT22;11737;50.558;7.258;2022-07-12T01:28:42;14.10;99.90
23137;DHT22;11737;50.558;7.258;2022-07-12T01:31:09;14.10;99.90
23137;DHT22;11737;50.558;7.258;2022-07-12T01:33:37;14.10;99.90
23137;DHT22;11737;50.558;7.258;2022-07-12T01:36:05;14.10;99.90
23137;DHT22;11737;50.558;7.258;2022-07-12T01:38:33;14.10;99.90
23137;DHT22;11737;50.558;7.258;2022-07-12T01:41:00;14.20;99.90
23137;DHT22;11737;50.558;7.258;2022-07-12T01:43:28;14.20;99.90
23137;DHT22;11737;50.558;7.258;2022-07-12T01:45:56;14.20;99.90
23137;DHT22;11737;50.558;7.258;2022-07-12T01:48:43;14.10;99.90
23137;DHT22;11737;50.558;7.258;2022-07-12T01:51:10;14.10;99.90
23137;DHT22;11737;50.558;7.258;2022-07-12T01:53:38;14.10;99.90
23137;DHT22;11737;50.558;7.258;2022-07-12T01:56:06;14.10;99.90
23137;DHT22;11737;50.558;7.258;2022-07-12T01:58:33;14.00;99.90
23137;DHT22;11737;50.558;7.258;2022-07-12T02:01:01;14.00;99.90
23137;DHT22;11737;50.558;7.258;2022-07-12T02:03:28;14.00;99.90
23137;DHT22;11737;50.558;7.258;2022-07-12T02:05:56;13.90;99.90
23137;DHT22;11737;50.558;7.258;2022-07-12T02:08:23;14.00;99.90
23137;DHT22;11737;50.558;7.258;2022-07-12T02:10:51;14.00;99.90
23137;DHT22;11737;50.558;7.258;2022-07-12T02:13:18;13.90;99.90
23137;DHT22;11737;50.558;7.258;2022-07-12T02:15:46;13.90;99.90
23137;DHT22;11737;50.558;7.258;2022-07-12T02:18:13;13.90;99.90
23137;DHT22;11737;50.558;7.258;2022-07-12T02:20:41;13.90;99.90
23137;DHT22;11737;50.558;7.258;2022-07-12T02:23:09;13.90;99.90
23137;DHT22;11737;50.558;7.258;2022-07-12T02:25:36;13.90;99.90
23137;DHT22;11737;50.558;7.258;2022-07-12T02:28:04;14.00;99.90
23137;DHT22;11737;50.558;7.258;2022-07-12T02:30:31;14.00;99.90
23137;DHT22;11737;50.558;7.258;2022-07-12T02:32:59;14.00;99.90
23137;DHT22;11737;50.558;7.258;2022-07-12T02:35:26;14.10;99.90
23137;DHT22;11737;50.558;7.258;2022-07-12T02:37:54;14.10;99.90
23137;DHT22;11737;50.558;7.258;2022-07-12T02:40:22;14.20;99.90
23137;DHT22;11737;50.558;7.258;2022-07-12T02:43:07;14.30;99.90
23137;DHT22;11737;50.558;7.258;2022-07-12T02:45:35;14.30;99.90
23137;DHT22;11737;50.558;7.258;2022-07-12T02:48:03;14.40;99.90
23137;DHT22;11737;50.558;7.258;2022-07-12T02:50:30;14.40;99.90
23137;DHT22;11737;50.558;7.258;2022-07-12T02:52:58;14.50;99.90
23137;DHT22;11737;50.558;7.258;2022-07-12T02:55:25;14.60;99.90
23137;DHT22;11737;50.558;7.258;2022-07-12T02:57:53;14.60;99.90
23137;DHT22;11737;50.558;7.258;2022-07-12T03:00:20;14.60;99.90
23137;DHT22;11737;50.558;7.258;2022-07-12T03:02:48;14.50;99.90
23137;DHT22;11737;50.558;7.258;2022-07-12T03:05:16;14.50;99.90
23137;DHT22;11737;50.558;7.258;2022-07-12T03:07:44;14.50;99.90
23137;DHT22;11737;50.558;7.258;2022-07-12T03:10:12;14.60;99.90
23137;DHT22;11737;50.558;7.258;2022-07-12T03:12:40;14.60;99.90
23137;DHT22;11737;50.558;7.258;2022-07-12T03:15:07;14.70;99.90
23137;DHT22;11737;50.558;7.258;2022-07-12T03:17:35;14.70;99.90
23137;DHT22;11737;50.558;7.258;2022-07-12T03:20:04;14.80;99.90
23137;DHT22;11737;50.558;7.258;2022-07-12T03:22:41;14.80;99.90
23137;DHT22;11737;50.558;7.258;2022-07-12T03:25:06;14.80;99.90
23137;DHT22;11737;50.558;7.258;2022-07-12T03:27:35;14.80;99.90
23137;DHT22;11737;50.558;7.258;2022-07-12T03:30:03;14.90;99.90
23137;DHT22;11737;50.558;7.258;2022-07-12T03:32:31;14.90;99.90
23137;DHT22;11737;50.558;7.258;2022-07-12T03:34:59;15.00;99.90
23137;DHT22;11737;50.558;7.258;2022-07-12T03:37:29;15.00;99.90
23137;DHT22;11737;50.558;7.258;2022-07-12T03:39:57;15.00;99.90
23137;DHT22;11737;50.558;7.258;2022-07-12T03:42:24;15.00;99.90
23137;DHT22;11737;50.558;7.258;2022-07-12T03:44:52;15.10;99.90
23137;DHT22;11737;50.558;7.258;2022-07-12T03:47:19;15.10;99.90
23137;DHT22;11737;50.558;7.258;2022-07-12T03:49:47;15.10;99.90
23137;DHT22;11737;50.558;7.258;2022-07-12T03:52:14;15.20;99.90
23137;DHT22;11737;50.558;7.258;2022-07-12T03:54:42;15.20;99.90
23137;DHT22;11737;50.558;7.258;2022-07-12T03:57:10;15.20;99.90
23137;DHT22;11737;50.558;7.258;2022-07-12T03:59:42;15.30;99.90
23137;DHT22;11737;50.558;7.258;2022-07-12T04:02:11;15.20;99.90
23137;DHT22;11737;50.558;7.258;2022-07-12T04:04:40;15.20;99.90
23137;DHT22;11737;50.558;7.258;2022-07-12T04:07:08;15.20;99.90
23137;DHT22;11737;50.558;7.258;2022-07-12T04:09:35;15.20;99.90
23137;DHT22;11737;50.558;7.258;2022-07-12T04:12:03;15.30;99.90
23137;DHT22;11737;50.558;7.258;2022-07-12T04:14:31;15.30;99.90
23137;DHT22;11737;50.558;7.258;2022-07-12T04:16:59;15.20;99.90
23137;DHT22;11737;50.558;7.258;2022-07-12T04:19:27;15.30;99.90
23137;DHT22;11737;50.558;7.258;2022-07-12T04:21:55;15.30;99.90
23137;DHT22;11737;50.558;7.258;2022-07-12T04:24:22;15.40;99.90
23137;DHT22;11737;50.558;7.258;2022-07-12T04:26:51;15.40;99.90
23137;DHT22;11737;50.558;7.258;2022-07-12T04:29:19;15.40;99.90
23137;DHT22;11737;50.558;7.258;2022-07-12T04:31:48;15.40;99.90
23137;DHT22;11737;50.558;7.258;2022-07-12T04:34:16;15.50;99.90
23137;DHT22;11737;50.558;7.258;2022-07-12T04:36:45;15.50;99.90
23137;DHT22;11737;50.558;7.258;2022-07-12T04:39:14;15.50;99.90
23137;DHT22;11737;50.558;7.258;2022-07-12T04:41:42;15.60;99.90
23137;DHT22;11737;50.558;7.258;2022-07-12T04:44:09;15.60;99.90
23137;DHT22;11737;50.558;7.258;2022-07-12T04:46:37;15.70;99.90
23137;DHT22;11737;50.558;7.258;2022-07-12T04:49:04;15.80;99.90
23137;DHT22;11737;50.558;7.258;2022-07-12T04:51:32;15.90;99.90
23137;DHT22;11737;50.558;7.258;2022-07-12T04:54:00;15.80;99.90
23137;DHT22;11737;50.558;7.258;2022-07-12T04:56:27;15.80;99.90
23137;DHT22;11737;50.558;7.258;2022-07-12T04:58:55;15.80;99.90
23137;DHT22;11737;50.558;7.258;2022-07-12T05:01:22;15.70;99.90
23137;DHT22;11737;50.558;7.258;2022-07-12T05:03:50;15.80;99.90
23137;DHT22;11737;50.558;7.258;2022-07-12T05:06:22;15.80;99.90
23137;DHT22;11737;50.558;7.258;2022-07-12T05:08:51;15.80;99.90
23137;DHT22;11737;50.558;7.258;2022-07-12T05:11:18;15.90;99.90
23137;DHT22;11737;50.558;7.258;2022-07-12T05:13:46;15.90;99.90
23137;DHT22;11737;50.558;7.258;2022-07-12T05:16:14;15.90;99.90
23137;DHT22;11737;50.558;7.258;2022-07-12T05:18:41;16.00;99.90
23137;DHT22;11737;50.558;7.258;2022-07-12T05:21:09;16.10;99.90
23137;DHT22;11737;50.558;7.258;2022-07-12T05:23:37;16.20;99.90
23137;DHT22;11737;50.558;7.258;2022-07-12T05:26:05;16.40;99.90
23137;DHT22;11737;50.558;7.258;2022-07-12T05:28:33;16.50;99.90
23137;DHT22;11737;50.558;7.258;2022-07-12T05:31:00;16.50;99.90
23137;DHT22;11737;50.558;7.258;2022-07-12T05:33:27;16.60;99.90
23137;DHT22;11737;50.558;7.258;2022-07-12T05:35:55;16.60;99.90
23137;DHT22;11737;50.558;7.258;2022-07-12T05:38:22;16.70;99.90
23137;DHT22;11737;50.558;7.258;2022-07-12T05:40:51;16.70;99.90
23137;DHT22;11737;50.558;7.258;2022-07-12T05:43:18;16.80;99.90
23137;DHT22;11737;50.558;7.258;2022-07-12T05:45:46;16.80;99.90
23137;DHT22;11737;50.558;7.258;2022-07-12T05:48:13;16.80;99.90
23137;DHT22;11737;50.558;7.258;2022-07-12T05:50:41;16.90;99.90
23137;DHT22;11737;50.558;7.258;2022-07-12T05:53:09;17.00;99.90
23137;DHT22;11737;50.558;7.258;2022-07-12T05:55:54;17.10;99.90
23137;DHT22;11737;50.558;7.258;2022-07-12T05:58:23;17.20;99.90
23137;DHT22;11737;50.558;7.258;2022-07-12T06:00:51;17.30;99.90
23137;DHT22;11737;50.558;7.258;2022-07-12T06:03:19;17.30;99.90
23137;DHT22;11737;50.558;7.258;2022-07-12T06:05:46;17.40;99.90
23137;DHT22;11737;50.558;7.258;2022-07-12T06:08:14;17.60;99.90
23137;DHT22;11737;50.558;7.258;2022-07-12T06:10:42;17.70;99.90
23137;DHT22;11737;50.558;7.258;2022-07-12T06:13:09;17.90;99.90
23137;DHT22;11737;50.558;7.258;2022-07-12T06:15:37;18.00;99.90
23137;DHT22;11737;50.558;7.258;2022-07-12T06:18:04;18.10;99.90
23137;DHT22;11737;50.558;7.258;2022-07-12T06:20:32;18.30;99.90
23137;DHT22;11737;50.558;7.258;2022-07-12T06:23:00;18.40;99.90
23137;DHT22;11737;50.558;7.258;2022-07-12T06:25:27;18.50;99.90
23137;DHT22;11737;50.558;7.258;2022-07-12T06:27:55;18.60;99.90
23137;DHT22;11737;50.558;7.258;2022-07-12T06:30:22;18.70;99.90
23137;DHT22;11737;50.558;7.258;2022-07-12T06:32:50;18.80;99.90
23137;DHT22;11737;50.558;7.258;2022-07-12T06:35:20;18.90;99.90
23137;DHT22;11737;50.558;7.258;2022-07-12T06:37:49;19.10;99.90
23137;DHT22;11737;50.558;7.258;2022-07-12T06:40:17;19.20;99.90
23137;DHT22;11737;50.558;7.258;2022-07-12T06:42:47;19.30;99.90
23137;DHT22;11737;50.558;7.258;2022-07-12T06:45:15;19.40;99.90
23137;DHT22;11737;50.558;7.258;2022-07-12T06:47:44;19.50;99.90
23137;DHT22;11737;50.558;7.258;2022-07-12T06:50:12;19.60;99.90
23137;DHT22;11737;50.558;7.258;2022-07-12T06:52:40;19.70;99.90
23137;DHT22;11737;50.558;7.258;2022-07-12T06:55:08;19.90;99.90
23137;DHT22;11737;50.558;7.258;2022-07-12T06:57:36;20.00;99.90
23137;DHT22;11737;50.558;7.258;2022-07-12T07:00:05;20.10;99.90
23137;DHT22;11737;50.558;7.258;2022-07-12T07:02:33;20.20;99.90
23137;DHT22;11737;50.558;7.258;2022-07-12T07:05:00;20.40;99.90
23137;DHT22;11737;50.558;7.258;2022-07-12T07:07:28;20.40;99.90
23137;DHT22;11737;50.558;7.258;2022-07-12T07:09:55;20.50;99.90
23137;DHT22;11737;50.558;7.258;2022-07-12T07:12:23;20.60;99.90
23137;DHT22;11737;50.558;7.258;2022-07-12T07:14:51;20.70;99.90
23137;DHT22;11737;50.558;7.258;2022-07-12T07:17:19;20.80;99.90
23137;DHT22;11737;50.558;7.258;2022-07-12T07:19:47;21.00;99.90
23137;DHT22;11737;50.558;7.258;2022-07-12T07:22:15;21.10;99.90
23137;DHT22;11737;50.558;7.258;2022-07-12T07:24:43;21.20;99.90
23137;DHT22;11737;50.558;7.258;2022-07-12T07:27:10;21.40;99.90
23137;DHT22;11737;50.558;7.258;2022-07-12T07:29:38;21.50;99.90
23137;DHT22;11737;50.558;7.258;2022-07-12T07:32:23;21.60;99.90
23137;DHT22;11737;50.558;7.258;2022-07-12T07:34:54;21.70;99.90
23137;DHT22;11737;50.558;7.258;2022-07-12T07:37:21;21.80;99.90
23137;DHT22;11737;50.558;7.258;2022-07-12T07:39:50;21.90;99.90
23137;DHT22;11737;50.558;7.258;2022-07-12T07:42:18;22.00;99.90
23137;DHT22;11737;50.558;7.258;2022-07-12T07:44:48;22.10;99.90
23137;DHT22;11737;50.558;7.258;2022-07-12T07:47:17;22.30;99.90
23137;DHT22;11737;50.558;7.258;2022-07-12T07:49:44;22.40;99.90
23137;DHT22;11737;50.558;7.258;2022-07-12T07:52:12;22.50;99.90
23137;DHT22;11737;50.558;7.258;2022-07-12T07:54:40;22.60;99.90
23137;DHT22;11737;50.558;7.258;2022-07-12T07:57:07;22.70;99.90
23137;DHT22;11737;50.558;7.258;2022-07-12T07:59:36;22.80;99.90
23137;DHT22;11737;50.558;7.258;2022-07-12T08:02:04;22.90;99.90
23137;DHT22;11737;50.558;7.258;2022-07-12T08:04:32;23.10;99.90
23137;DHT22;11737;50.558;7.258;2022-07-12T08:06:59;23.20;99.90
23137;DHT22;11737;50.558;7.258;2022-07-12T08:09:27;23.30;99.90
23137;DHT22;11737;50.558;7.258;2022-07-12T08:11:54;23.40;99.90
23137;DHT22;11737;50.558;7.258;2022-07-12T08:14:22;23.50;99.90
23137;DHT22;11737;50.558;7.258;2022-07-12T08:16:49;23.50;98.40
23137;DHT22;11737;50.558;7.258;2022-07-12T08:19:18;23.60;99.50
23137;DHT22;11737;50.558;7.258;2022-07-12T08:21:46;23.70;99.90
23137;DHT22;11737;50.558;7.258;2022-07-12T08:24:14;23.80;99.90
23137;DHT22;11737;50.558;7.258;2022-07-12T08:26:43;23.90;98.40
23137;DHT22;11737;50.558;7.258;2022-07-12T08:29:12;23.90;99.20
23137;DHT22;11737;50.558;7.258;2022-07-12T08:31:39;24.10;99.10
23137;DHT22;11737;50.558;7.258;2022-07-12T08:34:07;24.20;99.10
23137;DHT22;11737;50.558;7.258;2022-07-12T08:36:34;24.30;98.90
23137;DHT22;11737;50.558;7.258;2022-07-12T08:39:03;24.40;99.10
23137;DHT22;11737;50.558;7.258;2022-07-12T08:41:31;24.40;99.30
23137;DHT22;11737;50.558;7.258;2022-07-12T08:43:58;24.60;98.90
23137;DHT22;11737;50.558;7.258;2022-07-12T08:46:26;24.70;98.50
23137;DHT22;11737;50.558;7.258;2022-07-12T08:48:53;24.60;96.50
23137;DHT22;11737;50.558;7.258;2022-07-12T08:51:22;24.70;98.30
23137;DHT22;11737;50.558;7.258;2022-07-12T08:54:10;24.70;98.30
23137;DHT22;11737;50.558;7.258;2022-07-12T08:56:40;24.80;96.80
23137;DHT22;11737;50.558;7.258;2022-07-12T08:59:12;24.90;95.90
23137;DHT22;11737;50.558;7.258;2022-07-12T09:01:46;25.00;94.50
23137;DHT22;11737;50.558;7.258;2022-07-12T09:04:20;25.00;96.30
23137;DHT22;11737;50.558;7.258;2022-07-12T09:06:46;25.10;96.00
23137;DHT22;11737;50.558;7.258;2022-07-12T09:09:28;25.20;95.20
23137;DHT22;11737;50.558;7.258;2022-07-12T09:11:56;25.30;94.60
23137;DHT22;11737;50.558;7.258;2022-07-12T09:14:24;25.40;95.70
23137;DHT22;11737;50.558;7.258;2022-07-12T09:17:04;25.50;94.00
23137;DHT22;11737;50.558;7.258;2022-07-12T09:19:33;25.60;95.10
23137;DHT22;11737;50.558;7.258;2022-07-12T09:22:01;25.70;94.90
23137;DHT22;11737;50.558;7.258;2022-07-12T09:24:29;25.80;95.60
23137;DHT22;11737;50.558;7.258;2022-07-12T09:27:04;25.90;94.70
23137;DHT22;11737;50.558;7.258;2022-07-12T09:29:32;25.90;94.70
23137;DHT22;11737;50.558;7.258;2022-07-12T09:32:06;25.90;93.70
23137;DHT22;11737;50.558;7.258;2022-07-12T09:34:58;26.00;93.20
23137;DHT22;11737;50.558;7.258;2022-07-12T09:37:44;26.00;93.30
23137;DHT22;11737;50.558;7.258;2022-07-12T09:40:14;26.10;92.10
23137;DHT22;11737;50.558;7.258;2022-07-12T09:42:42;26.10;92.10
23137;DHT22;11737;50.558;7.258;2022-07-12T09:45:11;26.10;91.30
23137;DHT22;11737;50.558;7.258;2022-07-12T09:47:41;26.10;91.70
23137;DHT22;11737;50.558;7.258;2022-07-12T09:50:11;26.20;91.70
23137;DHT22;11737;50.558;7.258;2022-07-12T09:52:38;26.20;92.60
23137;DHT22;11737;50.558;7.258;2022-07-12T09:55:09;26.20;92.70
23137;DHT22;11737;50.558;7.258;2022-07-12T09:57:39;26.40;93.00
23137;DHT22;11737;50.558;7.258;2022-07-12T10:00:09;26.50;92.90
23137;DHT22;11737;50.558;7.258;2022-07-12T10:02:39;26.60;92.70
23137;DHT22;11737;50.558;7.258;2022-07-12T10:05:08;26.60;91.50
23137;DHT22;11737;50.558;7.258;2022-07-12T10:07:38;26.60;90.80
23137;DHT22;11737;50.558;7.258;2022-07-12T10:10:06;26.60;90.00
23137;DHT22;11737;50.558;7.258;2022-07-12T10:12:35;26.60;91.10
23137;DHT22;11737;50.558;7.258;2022-07-12T10:15:14;26.60;90.50
23137;DHT22;11737;50.558;7.258;2022-07-12T10:17:35;26.70;91.90
23137;DHT22;11737;50.558;7.258;2022-07-12T10:20:17;26.80;92.00
23137;DHT22;11737;50.558;7.258;2022-07-12T10:22:45;26.90;91.30
23137;DHT22;11737;50.558;7.258;2022-07-12T10:27:55;27.00;91.60
23137;DHT22;11737;50.558;7.258;2022-07-12T10:30:23;27.10;89.20
23137;DHT22;11737;50.558;7.258;2022-07-12T10:32:56;27.20;90.20
23137;DHT22;11737;50.558;7.258;2022-07-12T10:35:30;27.30;90.10
23137;DHT22;11737;50.558;7.258;2022-07-12T10:38:15;27.30;90.10
23137;DHT22;11737;50.558;7.258;2022-07-12T10:40:45;27.40;90.40
23137;DHT22;11737;50.558;7.258;2022-07-12T10:43:16;27.50;90.80
23137;DHT22;11737;50.558;7.258;2022-07-12T10:45:45;27.70;90.50
23137;DHT22;11737;50.558;7.258;2022-07-12T10:48:19;27.90;88.60
23137;DHT22;11737;50.558;7.258;2022-07-12T10:50:52;28.00;87.40
23137;DHT22;11737;50.558;7.258;2022-07-12T10:53:34;28.10;85.00
23137;DHT22;11737;50.558;7.258;2022-07-12T10:56:15;28.10;86.10
23137;DHT22;11737;50.558;7.258;2022-07-12T10:58:53;28.10;84.40
23137;DHT22;11737;50.558;7.258;2022-07-12T11:01:23;28.20;86.40
23137;DHT22;11737;50.558;7.258;2022-07-12T11:04:02;28.20;85.80
23137;DHT22;11737;50.558;7.258;2022-07-12T11:06:26;28.30;84.80
23137;DHT22;11737;50.558;7.258;2022-07-12T11:09:00;28.30;84.30
23137;DHT22;11737;50.558;7.258;2022-07-12T11:11:34;28.40;84.00
23137;DHT22;11737;50.558;7.258;2022-07-12T11:14:02;28.50;81.10
23137;DHT22;11737;50.558;7.258;2022-07-12T11:16:30;28.50;79.70
23137;DHT22;11737;50.558;7.258;2022-07-12T11:18:58;28.50;81.40
23137;DHT22;11737;50.558;7.258;2022-07-12T11:21:26;28.40;80.60
23137;DHT22;11737;50.558;7.258;2022-07-12T11:23:54;28.50;82.20
23137;DHT22;11737;50.558;7.258;2022-07-12T11:26:22;28.60;82.70
23137;DHT22;11737;50.558;7.258;2022-07-12T11:28:49;28.70;81.90
23137;DHT22;11737;50.558;7.258;2022-07-12T11:31:18;28.70;82.00
23137;DHT22;11737;50.558;7.258;2022-07-12T11:33:48;28.80;78.60
23137;DHT22;11737;50.558;7.258;2022-07-12T11:36:17;29.00;78.20
23137;DHT22;11737;50.558;7.258;2022-07-12T11:38:46;29.10;77.90
23137;DHT22;11737;50.558;7.258;2022-07-12T11:41:14;29.10;77.20
23137;DHT22;11737;50.558;7.258;2022-07-12T11:43:42;29.10;78.50
23137;DHT22;11737;50.558;7.258;2022-07-12T11:46:11;29.20;79.90
23137;DHT22;11737;50.558;7.258;2022-07-12T11:48:40;29.20;79.90
23137;DHT22;11737;50.558;7.258;2022-07-12T11:51:10;29.20;79.00
23137;DHT22;11737;50.558;7.258;2022-07-12T11:53:40;29.30;79.40
23137;DHT22;11737;50.558;7.258;2022-07-12T11:56:09;29.30;78.90
23137;DHT22;11737;50.558;7.258;2022-07-12T11:58:37;29.40;75.30
23137;DHT22;11737;50.558;7.258;2022-07-12T12:01:09;29.40;74.80
23137;DHT22;11737;50.558;7.258;2022-07-12T12:03:45;29.40;76.60
23137;DHT22;11737;50.558;7.258;2022-07-12T12:06:13;29.40;76.80
23137;DHT22;11737;50.558;7.258;2022-07-12T12:08:41;29.50;75.00
23137;DHT22;11737;50.558;7.258;2022-07-12T12:11:10;29.50;72.30
23137;DHT22;11737;50.558;7.258;2022-07-12T12:13:37;29.60;72.90
23137;DHT22;11737;50.558;7.258;2022-07-12T12:16:06;29.50;74.40
23137;DHT22;11737;50.558;7.258;2022-07-12T12:18:38;29.50;72.90
23137;DHT22;11737;50.558;7.258;2022-07-12T12:21:08;29.60;71.60
23137;DHT22;11737;50.558;7.258;2022-07-12T12:23:37;29.70;73.20
23137;DHT22;11737;50.558;7.258;2022-07-12T12:26:13;29.80;72.20
23137;DHT22;11737;50.558;7.258;2022-07-12T12:28:49;29.90;70.90
23137;DHT22;11737;50.558;7.258;2022-07-12T12:31:21;30.10;69.20
23137;DHT22;11737;50.558;7.258;2022-07-12T12:33:53;30.20;70.40
23137;DHT22;11737;50.558;7.258;2022-07-12T12:37:02;30.30;71.80
23137;DHT22;11737;50.558;7.258;2022-07-12T12:39:00;30.40;67.60
23137;DHT22;11737;50.558;7.258;2022-07-12T12:41:29;30.50;69.60
23137;DHT22;11737;50.558;7.258;2022-07-12T12:43:59;30.60;70.30
23137;DHT22;11737;50.558;7.258;2022-07-12T12:46:58;30.80;70.20
23137;DHT22;11737;50.558;7.258;2022-07-12T12:49:49;30.90;66.60
23137;DHT22;11737;50.558;7.258;2022-07-12T12:52:18;30.90;66.00
23137;DHT22;11737;50.558;7.258;2022-07-12T12:54:45;31.00;66.10
23137;DHT22;11737;50.558;7.258;2022-07-12T12:57:13;31.10;67.80
23137;DHT22;11737;50.558;7.258;2022-07-12T12:59:41;31.20;66.20
23137;DHT22;11737;50.558;7.258;2022-07-12T13:02:09;31.30;66.20
23137;DHT22;11737;50.558;7.258;2022-07-12T13:04:37;31.30;66.70
23137;DHT22;11737;50.558;7.258;2022-07-12T13:07:05;31.20;66.40
23137;DHT22;11737;50.558;7.258;2022-07-12T13:09:33;31.40;60.80
23137;DHT22;11737;50.558;7.258;2022-07-12T13:12:01;31.50;61.70
23137;DHT22;11737;50.558;7.258;2022-07-12T13:14:28;31.50;63.90
23137;DHT22;11737;50.558;7.258;2022-07-12T13:16:56;31.60;65.70
23137;DHT22;11737;50.558;7.258;2022-07-12T13:19:24;31.60;62.20
23137;DHT22;11737;50.558;7.258;2022-07-12T13:21:51;31.60;62.60
23137;DHT22;11737;50.558;7.258;2022-07-12T13:24:20;31.70;63.40
23137;DHT22;11737;50.558;7.258;2022-07-12T13:26:48;31.90;60.80
23137;DHT22;11737;50.558;7.258;2022-07-12T13:29:16;32.10;60.50
23137;DHT22;11737;50.558;7.258;2022-07-12T13:31:43;32.40;61.60
23137;DHT22;11737;50.558;7.258;2022-07-12T13:34:11;32.60;61.00
23137;DHT22;11737;50.558;7.258;2022-07-12T13:36:38;32.80;63.00
23137;DHT22;11737;50.558;7.258;2022-07-12T13:39:06;33.00;62.70
23137;DHT22;11737;50.558;7.258;2022-07-12T13:41:51;33.20;61.60
23137;DHT22;11737;50.558;7.258;2022-07-12T13:44:19;33.30;61.00
23137;DHT22;11737;50.558;7.258;2022-07-12T13:46:47;33.50;61.80
23137;DHT22;11737;50.558;7.258;2022-07-12T13:49:14;33.60;61.20
23137;DHT22;11737;50.558;7.258;2022-07-12T13:51:42;33.70;60.70
23137;DHT22;11737;50.558;7.258;2022-07-12T13:54:09;33.90;61.10
23137;DHT22;11737;50.558;7.258;2022-07-12T13:56:37;34.00;60.10
23137;DHT22;11737;50.558;7.258;2022-07-12T13:59:05;34.10;59.10
23137;DHT22;11737;50.558;7.258;2022-07-12T14:01:32;34.30;60.00
23137;DHT22;11737;50.558;7.258;2022-07-12T14:04:00;34.40;57.70
23137;DHT22;11737;50.558;7.258;2022-07-12T14:06:28;34.60;56.80
23137;DHT22;11737;50.558;7.258;2022-07-12T14:08:57;34.70;56.40
23137;DHT22;11737;50.558;7.258;2022-07-12T14:11:24;35.00;56.60
23137;DHT22;11737;50.558;7.258;2022-07-12T14:13:52;35.30;57.30
23137;DHT22;11737;50.558;7.258;2022-07-12T14:16:20;35.50;56.90
23137;DHT22;11737;50.558;7.258;2022-07-12T14:18:48;35.70;56.70
23137;DHT22;11737;50.558;7.258;2022-07-12T14:21:18;36.00;54.30
23137;DHT22;11737;50.558;7.258;2022-07-12T14:23:47;36.40;54.20
23137;DHT22;11737;50.558;7.258;2022-07-12T14:26:15;36.70;53.60
23137;DHT22;11737;50.558;7.258;2022-07-12T14:28:43;37.10;53.40
23137;DHT22;11737;50.558;7.258;2022-07-12T14:31:11;37.50;52.30
23137;DHT22;11737;50.558;7.258;2022-07-12T14:33:38;38.00;52.10
23137;DHT22;11737;50.558;7.258;2022-07-12T14:36:06;38.40;51.20
23137;DHT22;11737;50.558;7.258;2022-07-12T14:38:34;38.70;49.10
23137;DHT22;11737;50.558;7.258;2022-07-12T14:41:02;38.70;49.00
23137;DHT22;11737;50.558;7.258;2022-07-12T14:43:29;38.70;46.70
23137;DHT22;11737;50.558;7.258;2022-07-12T14:45:57;38.90;45.70
23137;DHT22;11737;50.558;7.258;2022-07-12T14:48:24;39.00;46.20
23137;DHT22;11737;50.558;7.258;2022-07-12T14:50:52;38.90;45.10
23137;DHT22;11737;50.558;7.258;2022-07-12T14:53:19;38.70;43.60
23137;DHT22;11737;50.558;7.258;2022-07-12T14:55:48;38.90;45.40
23137;DHT22;11737;50.558;7.258;2022-07-12T14:58:15;39.20;43.90
23137;DHT22;11737;50.558;7.258;2022-07-12T15:00:43;39.30;43.20
23137;DHT22;11737;50.558;7.258;2022-07-12T15:03:11;39.80;41.70
23137;DHT22;11737;50.558;7.258;2022-07-12T15:05:38;40.30;41.80
23137;DHT22;11737;50.558;7.258;2022-07-12T15:08:06;40.80;42.00
23137;DHT22;11737;50.558;7.258;2022-07-12T15:10:35;41.10;39.50
23137;DHT22;11737;50.558;7.258;2022-07-12T15:13:03;41.50;38.60
23137;DHT22;11737;50.558;7.258;2022-07-12T15:15:31;41.50;38.40
23137;DHT22;11737;50.558;7.258;2022-07-12T15:17:59;41.00;40.10
23137;DHT22;11737;50.558;7.258;2022-07-12T15:20:27;40.40;40.30
23137;DHT22;11737;50.558;7.258;2022-07-12T15:22:54;40.00;40.10
23137;DHT22;11737;50.558;7.258;2022-07-12T15:25:23;39.60;39.30
23137;DHT22;11737;50.558;7.258;2022-07-12T15:27:52;39.30;38.10
23137;DHT22;11737;50.558;7.258;2022-07-12T15:30:19;39.40;39.10
23137;DHT22;11737;50.558;7.258;2022-07-12T15:32:47;39.30;38.90
23137;DHT22;11737;50.558;7.258;2022-07-12T15:35:17;39.30;39.90
23137;DHT22;11737;50.558;7.258;2022-07-12T15:37:45;39.20;39.30
23137;DHT22;11737;50.558;7.258;2022-07-12T15:40:12;39.40;38.50
23137;DHT22;11737;50.558;7.258;2022-07-12T15:42:40;39.20;35.50
23137;DHT22;11737;50.558;7.258;2022-07-12T15:45:08;38.80;38.60